logo
Search for airport 
image banner adimage banner adimage banner ad
image banner ad

LZHRAB - Hrabusice

Located in Hrabušice, Slovakia

ICAO - , IATA -

Data provided by Airmate  

General information

Coordinates: N48°58'9" E20°23'11"
Elevation is 1824 feet MSL.
 
View others Airports in Košice

Operational data

Special qualification required
Current time UTC:
Current local time:
Weather at : LZTT - Poprad-Tatry ( 16 km )
METAR: LZTT 261200Z VRB02KT 9999 FEW053 23/12 Q1027 NOSIG
TAF: TAF LZTT 261115Z 2612/2712 08006KT 9999 FEW060 BECMG 2621/2623 BKN005 TEMPO 2623/2709 2000 BR BCFG BKN002 PROB30 TEMPO 2700/2707 0200 FG BKN001
View NOTAMs / SUP AIP / TFR affecting this airport [VIEW]
Communications frequencies: [VIEW]

Runways:

RWY identifierQFULength (ft)Width (ft)SurfaceLDA (ft)
0767°98466GRASS984
25247°98466GRASS984

Airport contact information

Address: Hrabušice Slovakia

Satellite view of LZHRAB